createdAt,value
2017-11-27T00:01:01.417Z,1.80
2017-11-27T00:03:28.938Z,1.70
2017-11-27T00:05:56.479Z,1.80
2017-11-27T00:08:24.006Z,1.70
2017-11-27T00:10:53.861Z,1.70
2017-11-27T00:13:21.411Z,1.70
2017-11-27T00:15:48.925Z,1.70
2017-11-27T00:18:16.490Z,1.70
2017-11-27T00:20:44.771Z,1.80
2017-11-27T00:23:13.059Z,1.80
2017-11-27T00:25:41.372Z,1.80
2017-11-27T00:28:08.880Z,1.80
2017-11-27T00:30:37.183Z,1.80
2017-11-27T00:33:04.693Z,1.70
2017-11-27T00:35:32.240Z,1.70
2017-11-27T00:37:59.782Z,1.70
2017-11-27T00:40:27.313Z,1.70
2017-11-27T00:42:54.827Z,1.70
2017-11-27T00:45:23.137Z,1.80
2017-11-27T00:47:50.683Z,1.70
2017-11-27T00:50:18.236Z,1.80
2017-11-27T00:52:45.762Z,1.80
2017-11-27T00:55:13.292Z,1.70
2017-11-27T00:57:40.800Z,1.70
2017-11-27T01:00:09.070Z,1.60
2017-11-27T01:02:37.374Z,1.60
2017-11-27T01:05:04.874Z,1.60
2017-11-27T01:07:32.391Z,1.50
2017-11-27T01:09:59.914Z,1.40
2017-11-27T01:12:28.194Z,1.30
2017-11-27T01:14:56.589Z,1.30
2017-11-27T01:17:24.097Z,1.20
2017-11-27T01:19:51.606Z,1.20
2017-11-27T01:22:19.122Z,1.10
2017-11-27T01:24:46.625Z,1.10
2017-11-27T01:27:14.125Z,1.00
2017-11-27T01:29:41.642Z,1.00
2017-11-27T01:32:09.149Z,0.90
2017-11-27T01:34:36.646Z,0.90
2017-11-27T01:37:04.194Z,0.90
2017-11-27T01:39:31.699Z,0.90
2017-11-27T01:41:59.218Z,0.90
2017-11-27T01:44:26.735Z,0.90
2017-11-27T01:46:54.242Z,1.00
2017-11-27T01:49:21.770Z,1.00
2017-11-27T01:51:50.047Z,1.10
2017-11-27T01:54:18.335Z,1.20
2017-11-27T01:56:45.848Z,1.20
2017-11-27T01:59:13.346Z,1.20
2017-11-27T02:01:40.866Z,1.30
2017-11-27T02:04:08.383Z,1.30
2017-11-27T02:06:35.898Z,1.30
2017-11-27T02:09:04.190Z,1.30
2017-11-27T02:11:31.689Z,1.30
2017-11-27T02:13:59.194Z,1.30
2017-11-27T02:16:27.482Z,1.30
2017-11-27T02:18:54.997Z,1.30
2017-11-27T02:21:22.501Z,1.30
2017-11-27T02:23:50.023Z,1.40
2017-11-27T02:26:17.528Z,1.40
2017-11-27T02:28:45.037Z,1.40
2017-11-27T02:31:12.613Z,1.40
2017-11-27T02:33:40.105Z,1.40
2017-11-27T02:36:07.623Z,1.40
2017-11-27T02:38:35.937Z,1.40
2017-11-27T02:41:03.449Z,1.40
2017-11-27T02:43:31.742Z,1.40
2017-11-27T02:45:59.251Z,1.40
2017-11-27T02:48:26.776Z,1.30
2017-11-27T02:50:54.295Z,1.40
2017-11-27T02:53:22.569Z,1.40
2017-11-27T02:55:50.847Z,1.40
2017-11-27T02:58:19.143Z,1.40
2017-11-27T03:00:46.658Z,1.40
2017-11-27T03:03:14.166Z,1.40
2017-11-27T03:05:41.686Z,1.50
2017-11-27T03:08:09.191Z,1.50
2017-11-27T03:10:36.696Z,1.50
2017-11-27T03:13:04.217Z,1.50
2017-11-27T03:15:31.722Z,1.50
2017-11-27T03:18:00.007Z,1.50
2017-11-27T03:20:27.534Z,1.50
2017-11-27T03:22:55.045Z,1.50
2017-11-27T03:25:22.551Z,1.50
2017-11-27T03:27:50.094Z,1.40
2017-11-27T03:30:17.608Z,1.40
2017-11-27T03:32:45.122Z,1.40
2017-11-27T03:35:12.653Z,1.40
2017-11-27T03:37:40.185Z,1.30
2017-11-27T03:40:07.690Z,1.30
2017-11-27T03:42:35.223Z,1.20
2017-11-27T03:45:02.744Z,1.20
2017-11-27T03:47:30.262Z,1.20
2017-11-27T03:49:57.759Z,1.20
2017-11-27T03:52:25.257Z,1.10
2017-11-27T03:54:52.782Z,1.10
2017-11-27T03:57:20.291Z,1.10
2017-11-27T03:59:47.803Z,1.10
2017-11-27T04:02:15.346Z,1.00
2017-11-27T04:04:42.851Z,1.00
2017-11-27T04:07:11.136Z,0.90
2017-11-27T04:09:38.654Z,0.90
2017-11-27T04:12:06.158Z,0.90
2017-11-27T04:14:33.649Z,1.00
2017-11-27T04:17:01.171Z,1.00
2017-11-27T04:19:28.709Z,1.00
2017-11-27T04:21:56.198Z,1.00
2017-11-27T04:24:23.700Z,1.10
2017-11-27T04:26:51.220Z,1.20
2017-11-27T04:29:19.477Z,1.30
2017-11-27T04:31:47.009Z,1.20
2017-11-27T04:34:14.495Z,1.30
2017-11-27T04:36:42.769Z,1.40
2017-11-27T04:39:11.068Z,1.40
2017-11-27T04:41:38.575Z,1.30
2017-11-27T04:44:06.091Z,1.30
2017-11-27T04:46:33.581Z,1.30
2017-11-27T04:49:01.092Z,1.30
2017-11-27T04:51:28.587Z,1.30
2017-11-27T04:53:56.083Z,1.30
2017-11-27T04:56:24.353Z,1.30
2017-11-27T04:58:52.623Z,1.30
2017-11-27T05:01:20.172Z,1.30
2017-11-27T05:03:47.665Z,1.30
2017-11-27T05:06:15.162Z,1.20
2017-11-27T05:08:42.778Z,1.20
2017-11-27T05:11:11.045Z,1.20
2017-11-27T05:13:39.313Z,1.20
2017-11-27T05:16:07.597Z,1.20
2017-11-27T05:18:35.862Z,1.10
2017-11-27T05:21:04.149Z,1.10
2017-11-27T05:23:32.426Z,1.10
2017-11-27T05:25:59.917Z,1.10
2017-11-27T05:28:27.408Z,1.10
2017-11-27T05:30:54.921Z,1.10
2017-11-27T05:33:22.428Z,1.10
2017-11-27T05:35:50.696Z,1.10
2017-11-27T05:38:18.214Z,1.10
2017-11-27T05:40:45.707Z,1.10
2017-11-27T05:43:13.193Z,1.10
2017-11-27T05:45:41.476Z,1.10
2017-11-27T05:48:08.984Z,1.10
2017-11-27T05:50:36.492Z,1.20
2017-11-27T05:53:03.998Z,1.20
2017-11-27T05:55:31.601Z,1.20
2017-11-27T05:57:59.868Z,1.20
2017-11-27T06:00:28.140Z,1.30
2017-11-27T06:02:56.435Z,1.30
2017-11-27T06:05:23.929Z,1.30
2017-11-27T06:07:51.425Z,1.30
2017-11-27T06:10:19.701Z,1.30
2017-11-27T06:12:47.967Z,1.40
2017-11-27T06:15:15.485Z,1.30
2017-11-27T06:17:43.002Z,1.40
2017-11-27T06:20:10.497Z,1.40
2017-11-27T06:22:37.994Z,1.40
2017-11-27T06:25:05.502Z,1.40
2017-11-27T06:27:32.992Z,1.40
2017-11-27T06:30:00.490Z,1.40
2017-11-27T06:32:27.997Z,1.40
2017-11-27T06:34:55.522Z,1.50
2017-11-27T06:37:23.021Z,1.50
2017-11-27T06:39:51.297Z,1.50
2017-11-27T06:42:18.804Z,1.50
2017-11-27T06:44:47.107Z,1.40
2017-11-27T06:47:14.620Z,1.40
2017-11-27T06:49:42.905Z,1.50
2017-11-27T06:52:10.406Z,1.40
2017-11-27T06:54:40.667Z,1.50
2017-11-27T06:57:08.990Z,1.50
2017-11-27T06:59:36.508Z,1.50
2017-11-27T07:02:04.120Z,1.50
2017-11-27T07:04:31.604Z,1.50
2017-11-27T07:06:59.872Z,1.60
2017-11-27T07:09:28.246Z,1.70
2017-11-27T07:11:55.741Z,1.60
2017-11-27T07:14:23.243Z,1.70
2017-11-27T07:16:50.748Z,1.70
2017-11-27T07:19:18.275Z,1.70
2017-11-27T07:21:45.817Z,1.70
2017-11-27T07:24:13.306Z,1.70
2017-11-27T07:26:41.578Z,1.70
2017-11-27T07:29:09.874Z,1.70
2017-11-27T07:31:37.366Z,1.70
2017-11-27T07:34:04.863Z,1.70
2017-11-27T07:36:33.144Z,1.80
2017-11-27T07:39:07.015Z,1.80
2017-11-27T07:41:34.541Z,1.80
2017-11-27T07:44:02.039Z,1.80
2017-11-27T07:46:29.524Z,1.80
2017-11-27T07:48:57.031Z,1.80
2017-11-27T07:51:24.540Z,1.80
2017-11-27T07:53:52.803Z,1.80
2017-11-27T07:56:21.090Z,1.80
2017-11-27T07:58:48.610Z,1.80
2017-11-27T08:01:16.116Z,1.80
2017-11-27T08:03:43.624Z,1.80
2017-11-27T08:06:11.117Z,1.80
2017-11-27T08:08:39.382Z,1.90
2017-11-27T08:11:07.660Z,1.90
2017-11-27T08:13:35.919Z,2.00
2017-11-27T08:16:03.445Z,2.00
2017-11-27T08:18:30.961Z,2.00
2017-11-27T08:20:58.464Z,2.00
2017-11-27T08:23:25.975Z,2.00
2017-11-27T08:25:53.491Z,2.00
2017-11-27T08:28:21.010Z,2.10
2017-11-27T08:30:48.552Z,2.10
2017-11-27T08:33:17.861Z,2.10
2017-11-27T08:35:45.361Z,2.20
2017-11-27T08:38:12.885Z,2.20
2017-11-27T08:40:40.376Z,2.20
2017-11-27T08:43:07.877Z,2.20
2017-11-27T08:45:35.398Z,2.20
2017-11-27T08:48:02.917Z,2.20
2017-11-27T08:50:31.005Z,2.30
2017-11-27T08:52:58.564Z,2.30
2017-11-27T08:55:26.068Z,2.40
2017-11-27T08:57:53.556Z,2.40
2017-11-27T09:00:21.106Z,2.40
2017-11-27T09:02:48.609Z,2.40
2017-11-27T09:05:16.104Z,2.40
2017-11-27T09:07:43.625Z,2.40
2017-11-27T09:10:11.112Z,2.50
2017-11-27T09:12:38.615Z,2.50
2017-11-27T09:15:06.177Z,2.50
2017-11-27T09:17:33.689Z,2.50
2017-11-27T09:20:01.185Z,2.50
2017-11-27T09:22:28.702Z,2.50
2017-11-27T09:24:56.192Z,2.50
2017-11-27T09:27:23.691Z,2.60
2017-11-27T09:29:52.065Z,2.60
2017-11-27T09:32:20.345Z,2.60
2017-11-27T09:34:47.900Z,2.50
2017-11-27T09:37:15.545Z,2.60
2017-11-27T09:39:43.037Z,2.50
2017-11-27T09:42:10.553Z,2.50
2017-11-27T09:44:38.930Z,2.40
2017-11-27T09:47:06.429Z,2.40
2017-11-27T09:49:33.928Z,2.30
2017-11-27T09:52:01.437Z,2.30
2017-11-27T09:54:28.936Z,2.30
2017-11-27T09:56:56.432Z,2.30
2017-11-27T09:59:23.964Z,2.30
2017-11-27T10:01:51.455Z,2.30
2017-11-27T10:04:19.719Z,2.20
2017-11-27T10:06:47.249Z,2.20
2017-11-27T10:09:14.766Z,2.20
2017-11-27T10:11:42.257Z,2.30
2017-11-27T10:14:09.798Z,2.30
2017-11-27T10:16:37.296Z,2.40
2017-11-27T10:19:04.788Z,2.40
2017-11-27T10:21:32.306Z,2.30
2017-11-27T10:23:59.815Z,2.30
2017-11-27T10:26:27.307Z,2.30
2017-11-27T10:28:55.380Z,2.40
2017-11-27T10:31:23.687Z,2.50
2017-11-27T10:33:51.196Z,2.50
2017-11-27T10:36:19.549Z,2.70
2017-11-27T10:38:47.041Z,2.70
2017-11-27T10:41:14.552Z,2.80
2017-11-27T10:43:42.083Z,2.80
2017-11-27T10:46:10.418Z,2.90
2017-11-27T10:48:37.928Z,2.90
2017-11-27T10:51:06.208Z,3.00
2017-11-27T10:53:33.737Z,3.00
2017-11-27T10:56:01.245Z,3.10
2017-11-27T10:58:28.758Z,3.10
2017-11-27T11:01:11.031Z,3.10
2017-11-27T11:03:39.381Z,3.20
2017-11-27T11:06:06.873Z,3.20
2017-11-27T11:08:34.403Z,3.10
2017-11-27T11:11:01.911Z,3.10
2017-11-27T11:13:29.412Z,3.20
2017-11-27T11:15:56.950Z,3.20
2017-11-27T11:18:24.448Z,3.10
2017-11-27T11:20:51.972Z,3.10
2017-11-27T11:23:19.501Z,3.20
2017-11-27T11:25:47.763Z,3.40
2017-11-27T11:28:15.268Z,3.30
2017-11-27T11:30:42.799Z,3.40
2017-11-27T11:33:11.062Z,3.40
2017-11-27T11:35:38.548Z,3.40
2017-11-27T11:38:06.065Z,3.50
2017-11-27T11:40:33.582Z,3.70
2017-11-27T11:43:01.840Z,4.00
2017-11-27T11:45:29.369Z,4.00
2017-11-27T11:47:57.633Z,4.20
2017-11-27T11:50:25.904Z,4.20
2017-11-27T11:52:53.438Z,4.10
2017-11-27T11:55:20.938Z,4.20
2017-11-27T11:57:49.223Z,4.40
2017-11-27T12:00:16.752Z,4.40
2017-11-27T12:02:44.341Z,4.50
2017-11-27T12:05:12.630Z,4.60
2017-11-27T12:07:40.249Z,4.60
2017-11-27T12:10:07.739Z,4.60
2017-11-27T12:12:35.241Z,4.60
2017-11-27T12:15:02.751Z,4.50
2017-11-27T12:17:30.320Z,4.40
2017-11-27T12:19:57.864Z,4.20
2017-11-27T12:22:25.378Z,4.20
2017-11-27T12:24:52.892Z,4.10
2017-11-27T12:27:20.404Z,4.00
2017-11-27T12:29:47.932Z,3.90
2017-11-27T12:32:15.536Z,3.80
2017-11-27T12:34:43.828Z,3.70
2017-11-27T12:37:11.329Z,3.70
2017-11-27T12:39:41.379Z,3.60
2017-11-27T12:42:08.944Z,3.60
2017-11-27T12:44:37.227Z,3.60
2017-11-27T12:47:05.516Z,3.50
2017-11-27T12:49:33.037Z,3.50
2017-11-27T12:52:00.535Z,3.40
2017-11-27T12:54:28.044Z,3.40
2017-11-27T12:56:55.542Z,3.40
2017-11-27T12:59:23.157Z,3.40
2017-11-27T13:01:51.441Z,3.50
2017-11-27T13:04:18.971Z,3.50
2017-11-27T13:06:46.489Z,3.60
2017-11-27T13:09:14.002Z,3.70
2017-11-27T13:11:42.409Z,3.90
2017-11-27T13:14:10.674Z,3.90
2017-11-27T13:16:38.949Z,3.80
2017-11-27T13:19:07.227Z,3.80
2017-11-27T13:21:35.509Z,3.80
2017-11-27T13:24:03.909Z,3.80
2017-11-27T13:26:31.429Z,3.80
2017-11-27T13:28:58.928Z,3.80
2017-11-27T13:31:26.460Z,3.70
2017-11-27T13:33:53.970Z,3.70
2017-11-27T13:36:21.461Z,3.70
2017-11-27T13:38:48.969Z,3.70
2017-11-27T13:41:16.456Z,3.60
2017-11-27T13:43:43.975Z,3.60
2017-11-27T13:46:11.473Z,3.60
2017-11-27T13:48:38.979Z,3.60
2017-11-27T13:51:06.503Z,3.60
2017-11-27T13:53:34.009Z,3.60
2017-11-27T13:56:01.645Z,3.50
2017-11-27T13:58:29.170Z,3.50
2017-11-27T14:00:57.475Z,3.50
2017-11-27T14:03:24.984Z,3.50
2017-11-27T14:05:52.480Z,3.50
2017-11-27T14:08:20.744Z,3.40
2017-11-27T14:10:49.055Z,3.50
2017-11-27T14:13:16.561Z,3.40
2017-11-27T14:15:44.057Z,3.40
2017-11-27T14:18:11.635Z,3.40
2017-11-27T14:20:39.125Z,3.40
2017-11-27T14:23:06.632Z,3.40
2017-11-27T14:25:34.146Z,3.30
2017-11-27T14:28:02.340Z,3.30
2017-11-27T14:30:30.629Z,3.30
2017-11-27T14:32:58.147Z,3.30
2017-11-27T14:35:25.646Z,3.30
2017-11-27T14:37:53.137Z,3.40
2017-11-27T14:40:20.765Z,3.30
2017-11-27T14:42:48.267Z,3.30
2017-11-27T14:45:15.779Z,3.30
2017-11-27T14:47:43.303Z,3.30
2017-11-27T14:50:10.805Z,3.30
2017-11-27T14:52:38.336Z,3.40
2017-11-27T14:55:06.646Z,3.30
2017-11-27T14:57:34.148Z,3.30
2017-11-27T15:00:01.646Z,3.30
2017-11-27T15:02:29.177Z,3.30
2017-11-27T15:04:58.105Z,3.20
2017-11-27T15:07:25.602Z,3.20
2017-11-27T15:09:53.465Z,3.20
2017-11-27T15:12:21.763Z,3.10
2017-11-27T15:14:50.025Z,3.10
2017-11-27T15:17:18.310Z,3.10
2017-11-27T15:19:46.585Z,3.10
2017-11-27T15:22:14.852Z,3.10
2017-11-27T15:24:43.139Z,3.10
2017-11-27T15:27:11.399Z,3.20
2017-11-27T15:29:38.937Z,3.20
2017-11-27T15:32:06.478Z,3.10
2017-11-27T15:34:34.037Z,3.10
2017-11-27T15:37:02.131Z,3.20
2017-11-27T15:39:29.638Z,3.10
2017-11-27T15:41:57.208Z,3.10
2017-11-27T15:44:24.741Z,3.10
2017-11-27T15:46:52.253Z,3.00
2017-11-27T15:49:19.799Z,3.00
2017-11-27T15:51:47.314Z,3.00
2017-11-27T15:57:47.703Z,3.10
2017-11-27T16:00:16.274Z,3.10
2017-11-27T16:02:44.574Z,3.10
2017-11-27T16:05:12.089Z,3.10
2017-11-27T16:07:44.251Z,3.20
2017-11-27T16:10:17.230Z,3.10
2017-11-27T16:12:48.564Z,3.20
2017-11-27T16:15:20.613Z,3.20
2017-11-27T16:17:50.708Z,3.20
2017-11-27T16:26:24.988Z,3.20
2017-11-27T16:34:33.226Z,3.20
2017-11-27T16:37:01.501Z,3.20
2017-11-27T16:39:29.838Z,3.20
2017-11-27T16:41:57.339Z,3.20
2017-11-27T16:44:25.597Z,3.20
2017-11-27T16:46:53.906Z,3.30
2017-11-27T16:49:21.425Z,3.30
2017-11-27T16:51:48.954Z,3.30
2017-11-27T16:54:16.465Z,3.30
2017-11-27T16:56:44.740Z,3.30
2017-11-27T16:59:13.001Z,3.30
2017-11-27T17:01:41.290Z,3.30
2017-11-27T17:04:08.803Z,3.30
2017-11-27T17:06:36.307Z,3.30
2017-11-27T17:09:03.847Z,3.30
2017-11-27T17:11:32.102Z,3.30
2017-11-27T17:13:59.611Z,3.30
2017-11-27T17:16:27.134Z,3.30
2017-11-27T17:18:55.415Z,3.30
2017-11-27T17:21:22.976Z,3.30
2017-11-27T17:23:51.262Z,3.30
2017-11-27T17:26:18.764Z,3.30
2017-11-27T17:28:46.729Z,3.30
2017-11-27T17:31:14.244Z,3.30
2017-11-27T17:33:41.754Z,3.30
2017-11-27T17:36:10.047Z,3.40
2017-11-27T17:38:37.587Z,3.40
2017-11-27T17:41:05.157Z,3.40
2017-11-27T17:43:32.688Z,3.50
2017-11-27T17:46:00.313Z,3.50
2017-11-27T17:48:27.839Z,3.40
2017-11-27T17:50:55.362Z,3.40
2017-11-27T17:53:22.860Z,3.40
2017-11-27T17:55:51.138Z,3.30
2017-11-27T17:58:19.432Z,3.40
2017-11-27T18:00:46.948Z,3.40
2017-11-27T18:03:14.459Z,3.40
2017-11-27T18:05:41.992Z,3.40
2017-11-27T18:08:10.244Z,3.40
2017-11-27T18:10:37.745Z,3.40
2017-11-27T18:13:05.371Z,3.40
2017-11-27T18:15:33.647Z,3.50
2017-11-27T18:18:01.917Z,3.40
2017-11-27T18:20:30.213Z,3.40
2017-11-27T18:22:57.728Z,3.40
2017-11-27T18:25:25.232Z,3.40
2017-11-27T18:27:52.753Z,3.40
2017-11-27T18:30:20.270Z,3.40
2017-11-27T18:32:47.781Z,3.40
2017-11-27T18:35:16.087Z,3.40
2017-11-27T18:37:43.612Z,3.30
2017-11-27T18:40:11.886Z,3.30
2017-11-27T18:42:40.176Z,3.30
2017-11-27T18:45:07.852Z,3.30
2017-11-27T18:47:35.352Z,3.30
2017-11-27T18:50:02.877Z,3.40
2017-11-27T18:52:30.390Z,3.30
2017-11-27T18:54:58.699Z,3.30
2017-11-27T18:57:26.219Z,3.30
2017-11-27T18:59:53.743Z,3.30
2017-11-27T19:02:21.256Z,3.30
2017-11-27T19:04:48.793Z,3.20
2017-11-27T19:07:17.067Z,3.20
2017-11-27T19:09:45.371Z,3.20
2017-11-27T19:12:13.669Z,3.30
2017-11-27T19:14:41.188Z,3.20
2017-11-27T19:17:08.735Z,3.30
2017-11-27T19:19:36.995Z,3.30
2017-11-27T19:22:04.534Z,3.30
2017-11-27T19:24:32.084Z,3.30
2017-11-27T19:26:59.591Z,3.30
2017-11-27T19:29:27.861Z,3.30
2017-11-27T19:31:56.153Z,3.40
2017-11-27T19:34:23.665Z,3.40
2017-11-27T19:36:51.193Z,3.40
2017-11-27T19:39:18.752Z,3.40
2017-11-27T19:41:46.300Z,3.40
2017-11-27T19:44:13.877Z,3.30
2017-11-27T19:46:41.372Z,3.30
2017-11-27T19:49:09.680Z,3.30
2017-11-27T19:51:37.185Z,3.20
2017-11-27T19:54:04.720Z,3.30
2017-11-27T19:56:32.240Z,3.30
2017-11-27T19:58:59.758Z,3.30
2017-11-27T20:01:27.292Z,3.30
2017-11-27T20:03:54.795Z,3.30
2017-11-27T20:06:23.082Z,3.30
2017-11-27T20:08:50.613Z,3.30
2017-11-27T20:11:18.148Z,3.30
2017-11-27T20:13:45.723Z,3.40
2017-11-27T20:16:13.270Z,3.40
2017-11-27T20:18:40.774Z,3.30
2017-11-27T20:21:08.398Z,3.30
2017-11-27T20:23:37.370Z,3.30
2017-11-27T20:26:04.929Z,3.30
2017-11-27T20:28:32.435Z,3.30
2017-11-27T20:30:59.938Z,3.30
2017-11-27T20:33:27.509Z,3.30
2017-11-27T20:35:55.025Z,3.40
2017-11-27T20:38:22.571Z,3.40
2017-11-27T20:40:50.096Z,3.40
2017-11-27T20:43:17.616Z,3.40
2017-11-27T20:45:45.137Z,3.40
2017-11-27T20:48:13.526Z,3.40
2017-11-27T20:50:41.101Z,3.40
2017-11-27T20:53:08.774Z,3.40
2017-11-27T20:55:36.628Z,3.40
2017-11-27T20:58:04.383Z,3.40
2017-11-27T21:00:32.049Z,3.40
2017-11-27T21:02:59.801Z,3.40
2017-11-27T21:05:27.676Z,3.40
2017-11-27T21:10:46.155Z,3.30
2017-11-27T21:13:13.705Z,3.30
2017-11-27T21:15:42.048Z,3.30
2017-11-27T21:18:09.628Z,3.30
2017-11-27T21:20:37.125Z,3.30
2017-11-27T21:23:04.664Z,3.40
2017-11-27T21:25:32.194Z,3.40
2017-11-27T21:27:59.693Z,3.40
2017-11-27T21:30:27.236Z,3.40
2017-11-27T21:32:54.760Z,3.40
2017-11-27T21:35:22.294Z,3.40
2017-11-27T21:37:50.579Z,3.40
2017-11-27T21:40:18.887Z,3.40
2017-11-27T21:42:46.401Z,3.40
2017-11-27T21:45:14.677Z,3.40
2017-11-27T21:47:42.976Z,3.40
2017-11-27T21:50:10.494Z,3.40
2017-11-27T21:52:37.992Z,3.40
2017-11-27T21:55:05.525Z,3.40
2017-11-27T21:57:33.841Z,3.50
2017-11-27T22:00:01.389Z,3.50
2017-11-27T22:02:28.897Z,3.50
2017-11-27T22:04:56.428Z,3.50
2017-11-27T22:07:23.929Z,3.50
2017-11-27T22:09:52.227Z,3.40
2017-11-27T22:12:19.740Z,3.40
2017-11-27T22:14:47.264Z,3.40
2017-11-27T22:17:14.804Z,3.40
2017-11-27T22:19:42.341Z,3.40
2017-11-27T22:22:09.869Z,3.40
2017-11-27T22:24:37.374Z,3.40
2017-11-27T22:27:04.902Z,3.40
2017-11-27T22:29:33.182Z,3.40
2017-11-27T22:32:00.721Z,3.40
2017-11-27T22:34:28.253Z,3.40
2017-11-27T22:36:55.758Z,3.40
2017-11-27T22:39:24.062Z,3.40
2017-11-27T22:41:51.578Z,3.40
2017-11-27T22:44:19.896Z,3.30
2017-11-27T22:46:47.665Z,3.30
2017-11-27T22:49:15.361Z,3.30
2017-11-27T22:51:44.042Z,3.30
2017-11-27T22:54:12.527Z,3.30
2017-11-27T22:56:41.769Z,3.30
2017-11-27T22:59:09.496Z,3.30
2017-11-27T23:01:37.157Z,3.30
2017-11-27T23:04:04.997Z,3.30
2017-11-27T23:06:33.464Z,3.40
2017-11-27T23:09:01.188Z,3.40
2017-11-27T23:11:28.941Z,3.40
2017-11-27T23:13:56.739Z,3.30
2017-11-27T23:16:24.299Z,3.30
2017-11-27T23:18:51.807Z,3.30
2017-11-27T23:21:19.358Z,3.30
2017-11-27T23:23:47.642Z,3.30
2017-11-27T23:26:15.938Z,3.30
2017-11-27T23:28:43.454Z,3.30
2017-11-27T23:31:10.959Z,3.30
2017-11-27T23:33:38.490Z,3.40
2017-11-27T23:36:06.765Z,3.40
2017-11-27T23:38:35.049Z,3.30
2017-11-27T23:41:02.585Z,3.30
2017-11-27T23:43:30.078Z,3.40
2017-11-27T23:45:57.614Z,3.40
2017-11-27T23:48:25.124Z,3.40
2017-11-27T23:50:52.626Z,3.40
2017-11-27T23:53:20.921Z,3.40
2017-11-27T23:55:48.454Z,3.40
2017-11-27T23:58:16.759Z,3.50
